ADDS TAF Data INFO
IDs: Format: Raw Decoded Include METARs

Data at: 0733 UTC 20 Nov 2017

KFLG 200657Z AUTO 00000KT 10SM CLR M06/M17 A3021 RMK AO2 SLP208 T10611167 401281122

KFLG 200529Z 2006/2106 00000KT P6SM SCT250
  FM201800 23008KT P6SM SCT200